createdAt,value
2018-05-08T00:00:42.421Z,52.31
2018-05-08T00:01:42.005Z,52.31
2018-05-08T00:02:42.018Z,52.38
2018-05-08T00:03:41.893Z,52.27
2018-05-08T00:04:41.999Z,52.29
2018-05-08T00:05:41.994Z,52.35
2018-05-08T00:06:42.150Z,52.32
2018-05-08T00:07:42.119Z,52.31
2018-05-08T00:08:41.927Z,52.34
2018-05-08T00:09:42.098Z,52.32
2018-05-08T00:10:42.170Z,52.32
2018-05-08T00:11:42.209Z,52.36
2018-05-08T00:12:42.190Z,52.29
2018-05-08T00:13:42.098Z,52.31
2018-05-08T00:14:41.871Z,52.3
2018-05-08T00:15:41.973Z,52.29
2018-05-08T00:16:42.188Z,52.28
2018-05-08T00:17:42.134Z,52.29
2018-05-08T00:18:42.020Z,52.28
2018-05-08T00:19:42.095Z,52.32
2018-05-08T00:20:42.181Z,52.3
2018-05-08T00:21:42.366Z,52.28
2018-05-08T00:22:41.997Z,52.28
2018-05-08T00:23:42.012Z,52.35
2018-05-08T00:24:42.182Z,52.29
2018-05-08T00:25:41.909Z,52.31
2018-05-08T00:26:42.046Z,52.32
2018-05-08T00:27:42.194Z,52.28
2018-05-08T00:28:42.260Z,52.28
2018-05-08T00:29:42.245Z,52.28
2018-05-08T00:30:42.027Z,52.24
2018-05-08T00:31:42.162Z,52.29
2018-05-08T00:32:42.074Z,52.32
2018-05-08T00:33:42.009Z,52.28
2018-05-08T00:34:42.179Z,52.27
2018-05-08T00:35:42.044Z,52.32
2018-05-08T00:36:41.973Z,52.26
2018-05-08T00:37:42.124Z,52.32
2018-05-08T00:38:41.938Z,52.33
2018-05-08T00:39:42.019Z,52.29
2018-05-08T00:40:41.986Z,52.23
2018-05-08T00:41:42.142Z,52.3
2018-05-08T00:42:42.091Z,52.28
2018-05-08T00:43:42.191Z,52.24
2018-05-08T00:44:42.063Z,52.26
2018-05-08T00:45:42.018Z,52.27
2018-05-08T00:46:42.243Z,52.29
2018-05-08T00:47:41.962Z,52.29
2018-05-08T00:48:42.105Z,52.26
2018-05-08T00:49:42.190Z,52.26
2018-05-08T00:50:42.015Z,52.3
2018-05-08T00:51:41.952Z,52.26
2018-05-08T00:52:41.971Z,52.26
2018-05-08T00:53:42.124Z,52.27
2018-05-08T00:54:42.021Z,52.2
2018-05-08T00:55:42.087Z,52.24
2018-05-08T00:56:41.952Z,52.27
2018-05-08T00:57:42.133Z,52.26
2018-05-08T00:58:41.931Z,52.21
2018-05-08T00:59:42.275Z,52.24
2018-05-08T01:00:42.084Z,52.24
2018-05-08T01:01:42.031Z,52.3
2018-05-08T01:02:42.204Z,52.26
2018-05-08T01:03:41.930Z,52.23
2018-05-08T01:04:42.122Z,52.24
2018-05-08T01:05:42.118Z,52.26
2018-05-08T01:06:41.943Z,52.27
2018-05-08T01:07:42.077Z,52.22
2018-05-08T01:08:41.997Z,52.24
2018-05-08T01:09:41.958Z,52.25
2018-05-08T01:10:41.997Z,52.24
2018-05-08T01:11:42.392Z,52.23
2018-05-08T01:12:42.144Z,52.21
2018-05-08T01:13:42.156Z,52.24
2018-05-08T01:14:42.005Z,52.27
2018-05-08T01:15:42.095Z,52.23
2018-05-08T01:16:42.123Z,52.25
2018-05-08T01:17:42.028Z,52.25
2018-05-08T01:18:42.028Z,52.23
2018-05-08T01:19:42.129Z,52.26
2018-05-08T01:21:14.032Z,52.29
2018-05-08T01:21:41.922Z,52.26
2018-05-08T01:22:42.109Z,52.22
2018-05-08T01:23:41.968Z,52.28
2018-05-08T01:24:42.169Z,52.21
2018-05-08T01:25:41.920Z,52.22
2018-05-08T01:26:42.087Z,52.21
2018-05-08T01:27:42.035Z,52.23
2018-05-08T01:28:42.209Z,52.24
2018-05-08T01:29:42.251Z,52.24
2018-05-08T01:30:42.040Z,52.24
2018-05-08T01:31:43.056Z,52.22
2018-05-08T01:32:42.079Z,52.22
2018-05-08T01:33:41.848Z,52.24
2018-05-08T01:34:41.951Z,52.24
2018-05-08T01:35:42.028Z,52.23
2018-05-08T01:36:41.940Z,52.24
2018-05-08T01:37:42.328Z,52.22
2018-05-08T01:38:42.008Z,52.27
2018-05-08T01:39:42.136Z,52.22
2018-05-08T01:40:42.184Z,52.24
2018-05-08T01:41:41.971Z,52.23
2018-05-08T01:42:42.042Z,52.22
2018-05-08T01:43:42.006Z,52.2
2018-05-08T01:44:42.127Z,52.22
2018-05-08T01:45:41.979Z,52.22
2018-05-08T01:46:42.076Z,52.24
2018-05-08T01:47:42.127Z,52.25
2018-05-08T01:48:41.927Z,52.23
2018-05-08T01:49:42.041Z,52.22
2018-05-08T01:50:41.973Z,52.24
2018-05-08T01:51:42.096Z,52.18
2018-05-08T01:52:41.958Z,52.21
2018-05-08T01:53:42.123Z,52.23
2018-05-08T01:54:42.136Z,52.21
2018-05-08T01:55:41.883Z,52.21
2018-05-08T01:56:41.996Z,52.2
2018-05-08T01:57:42.031Z,52.21
2018-05-08T01:58:41.947Z,52.2
2018-05-08T01:59:42.077Z,52.22
2018-05-08T02:00:42.060Z,52.17
2018-05-08T02:01:42.116Z,52.21
2018-05-08T02:02:41.997Z,52.23
2018-05-08T02:03:42.083Z,52.21
2018-05-08T02:04:42.090Z,52.2
2018-05-08T02:05:41.993Z,52.23
2018-05-08T02:06:42.496Z,52.2
2018-05-08T02:07:42.100Z,52.21
2018-05-08T02:08:42.041Z,52.19
2018-05-08T02:09:42.060Z,52.18
2018-05-08T02:10:41.898Z,52.21
2018-05-08T02:11:42.034Z,52.2
2018-05-08T02:12:42.141Z,52.22
2018-05-08T02:13:41.942Z,52.22
2018-05-08T02:14:42.021Z,52.24
2018-05-08T02:15:42.167Z,52.21
2018-05-08T02:16:41.889Z,52.24
2018-05-08T02:17:41.930Z,52.22
2018-05-08T02:18:42.218Z,52.2
2018-05-08T02:19:42.272Z,52.21
2018-05-08T02:20:42.058Z,52.2
2018-05-08T02:21:41.916Z,52.18
2018-05-08T02:22:42.036Z,52.22
2018-05-08T02:23:42.149Z,52.22
2018-05-08T02:24:42.168Z,52.2
2018-05-08T02:25:42.000Z,52.2
2018-05-08T02:26:42.060Z,52.22
2018-05-08T02:27:41.932Z,52.18
2018-05-08T02:28:42.042Z,52.24
2018-05-08T02:29:41.980Z,52.22
2018-05-08T02:30:42.132Z,52.21
2018-05-08T02:31:41.936Z,52.22
2018-05-08T02:32:41.899Z,52.23
2018-05-08T02:33:42.068Z,52.18
2018-05-08T02:34:42.055Z,52.21
2018-05-08T02:35:41.941Z,52.26
2018-05-08T02:36:42.046Z,52.18
2018-05-08T02:37:42.127Z,52.19
2018-05-08T02:38:42.156Z,52.21
2018-05-08T02:39:42.120Z,52.21
2018-05-08T02:40:42.153Z,52.21
2018-05-08T02:41:41.972Z,52.21
2018-05-08T02:42:42.023Z,52.22
2018-05-08T02:43:41.996Z,52.18
2018-05-08T02:44:42.023Z,52.22
2018-05-08T02:45:41.959Z,52.21
2018-05-08T02:46:42.062Z,52.18
2018-05-08T02:47:42.191Z,52.22
2018-05-08T02:48:42.021Z,52.2
2018-05-08T02:49:42.037Z,52.2
2018-05-08T02:50:41.952Z,52.21
2018-05-08T02:51:41.998Z,52.22
2018-05-08T02:52:42.066Z,52.22
2018-05-08T02:53:42.041Z,52.2
2018-05-08T02:54:41.886Z,52.15
2018-05-08T02:55:42.151Z,52.2
2018-05-08T02:56:41.843Z,52.2
2018-05-08T02:57:42.041Z,52.2
2018-05-08T02:58:42.076Z,52.2
2018-05-08T02:59:41.982Z,52.21
2018-05-08T03:00:41.911Z,52.21
2018-05-08T03:01:42.107Z,52.2
2018-05-08T03:02:42.084Z,52.21
2018-05-08T03:03:42.105Z,52.2
2018-05-08T03:04:42.248Z,52.17
2018-05-08T03:05:41.973Z,52.16
2018-05-08T03:06:42.191Z,52.21
2018-05-08T03:07:42.130Z,52.2
2018-05-08T03:08:42.192Z,52.2
2018-05-08T03:09:42.082Z,52.21
2018-05-08T03:10:42.083Z,52.2
2018-05-08T03:11:42.107Z,52.18
2018-05-08T03:12:42.023Z,52.17
2018-05-08T03:13:42.027Z,52.18
2018-05-08T03:14:42.039Z,52.15
2018-05-08T03:15:42.135Z,52.18
2018-05-08T03:16:41.815Z,52.18
2018-05-08T03:17:42.026Z,52.21
2018-05-08T03:18:41.976Z,52.15
2018-05-08T03:19:42.032Z,52.16
2018-05-08T03:20:41.940Z,52.18
2018-05-08T03:21:42.262Z,52.17
2018-05-08T03:22:41.908Z,52.17
2018-05-08T03:23:42.071Z,52.17
2018-05-08T03:24:41.989Z,52.12
2018-05-08T03:25:42.122Z,52.16
2018-05-08T03:26:41.853Z,52.15
2018-05-08T03:27:41.909Z,52.18
2018-05-08T03:28:41.950Z,52.15
2018-05-08T03:29:41.981Z,52.17
2018-05-08T03:30:42.016Z,52.16
2018-05-08T03:31:42.110Z,52.16
2018-05-08T03:32:42.470Z,52.18
2018-05-08T03:33:42.129Z,52.16
2018-05-08T03:34:41.950Z,52.17
2018-05-08T03:35:41.965Z,52.18
2018-05-08T03:36:41.970Z,52.17
2018-05-08T03:37:42.121Z,52.16
2018-05-08T03:38:41.856Z,52.16
2018-05-08T03:39:42.005Z,52.17
2018-05-08T03:40:42.074Z,52.16
2018-05-08T03:41:41.832Z,52.15
2018-05-08T03:42:42.097Z,52.15
2018-05-08T03:43:42.100Z,52.17
2018-05-08T03:44:42.049Z,52.15
2018-05-08T03:45:41.976Z,52.09
2018-05-08T03:46:41.985Z,52.13
2018-05-08T03:47:41.867Z,52.17
2018-05-08T03:48:41.875Z,52.16
2018-05-08T03:49:41.968Z,52.15
2018-05-08T03:50:41.878Z,52.14
2018-05-08T03:51:41.873Z,52.14
2018-05-08T03:52:42.214Z,52.13
2018-05-08T03:53:42.146Z,52.16
2018-05-08T03:54:42.088Z,52.13
2018-05-08T03:55:42.072Z,52.14
2018-05-08T03:56:41.868Z,52.14
2018-05-08T03:57:41.946Z,52.19
2018-05-08T03:58:41.983Z,52.15
2018-05-08T03:59:42.006Z,52.16
2018-05-08T04:00:41.963Z,52.18
2018-05-08T04:01:42.240Z,52.17
2018-05-08T04:02:42.046Z,52.2
2018-05-08T04:03:41.935Z,52.11
2018-05-08T04:04:41.913Z,52.14
2018-05-08T04:05:42.039Z,52.17
2018-05-08T04:06:41.934Z,52.15
2018-05-08T04:07:42.154Z,52.18
2018-05-08T04:08:42.062Z,52.13
2018-05-08T04:09:41.974Z,52.1
2018-05-08T04:10:42.146Z,52.1
2018-05-08T04:11:41.859Z,52.13
2018-05-08T04:12:41.913Z,52.1
2018-05-08T04:13:42.023Z,52.13
2018-05-08T04:14:41.968Z,52.18
2018-05-08T04:15:42.044Z,52.12
2018-05-08T04:16:41.942Z,52.12
2018-05-08T04:17:42.134Z,52.14
2018-05-08T04:18:41.984Z,52.09
2018-05-08T04:19:41.977Z,52.15
2018-05-08T04:20:42.121Z,52.11
2018-05-08T04:21:42.114Z,52.13
2018-05-08T04:22:42.007Z,52.12
2018-05-08T04:23:42.190Z,52.14
2018-05-08T04:24:42.083Z,52.13
2018-05-08T04:25:41.969Z,52.12
2018-05-08T04:26:41.978Z,52.14
2018-05-08T04:27:41.983Z,52.11
2018-05-08T04:28:42.002Z,52.11
2018-05-08T04:29:41.997Z,52.1
2018-05-08T04:30:42.114Z,52.11
2018-05-08T04:31:41.953Z,52.15
2018-05-08T04:32:41.992Z,52.12
2018-05-08T04:33:41.909Z,52.12
2018-05-08T04:34:42.068Z,52.1
2018-05-08T04:35:42.179Z,52.12
2018-05-08T04:36:42.988Z,52.13
2018-05-08T04:37:42.065Z,52.13
2018-05-08T04:38:42.003Z,52.08
2018-05-08T04:39:41.917Z,52.15
2018-05-08T04:40:41.963Z,52.13
2018-05-08T04:41:41.932Z,52.1
2018-05-08T04:42:41.984Z,52.12
2018-05-08T04:43:42.105Z,52.11
2018-05-08T04:44:41.888Z,52.12
2018-05-08T04:45:42.085Z,52.31
2018-05-08T04:46:42.050Z,52.18
2018-05-08T04:47:41.976Z,51.18
2018-05-08T04:48:42.098Z,50.83
2018-05-08T04:49:41.937Z,50.55
2018-05-08T04:50:42.006Z,49.9
2018-05-08T04:51:41.937Z,49.42
2018-05-08T04:52:41.988Z,49.42
2018-05-08T04:53:41.929Z,49.36
2018-05-08T04:54:41.964Z,49.3
2018-05-08T04:55:42.248Z,49.46
2018-05-08T04:56:41.903Z,48.97
2018-05-08T04:57:42.215Z,48.92
2018-05-08T04:58:41.980Z,49.04
2018-05-08T04:59:42.046Z,48.88
2018-05-08T05:00:41.974Z,48.88
2018-05-08T05:01:42.107Z,49.01
2018-05-08T05:02:42.248Z,48.68
2018-05-08T05:03:42.136Z,49.07
2018-05-08T05:04:41.920Z,48.98
2018-05-08T05:05:41.909Z,48.5
2018-05-08T05:06:42.086Z,48.95
2018-05-08T05:07:41.918Z,48.82
2018-05-08T05:08:41.996Z,48.59
2018-05-08T05:09:42.215Z,48.98
2018-05-08T05:10:42.100Z,48.68
2018-05-08T05:11:42.090Z,48.5
2018-05-08T05:12:42.133Z,48.57
2018-05-08T05:13:41.912Z,47.93
2018-05-08T05:14:42.067Z,48.47
2018-05-08T05:15:41.974Z,48.65
2018-05-08T05:16:42.524Z,48.7
2018-05-08T05:17:42.075Z,48.45
2018-05-08T05:18:42.006Z,48.79
2018-05-08T05:19:41.928Z,49.02
2018-05-08T05:20:41.970Z,48.8
2018-05-08T05:21:42.049Z,48.96
2018-05-08T05:22:41.990Z,48.98
2018-05-08T05:23:41.976Z,48.79
2018-05-08T05:24:41.891Z,48.9
2018-05-08T05:25:42.103Z,49.13
2018-05-08T05:26:41.872Z,49
2018-05-08T05:27:41.964Z,49.22
2018-05-08T05:28:42.112Z,49.34
2018-05-08T05:29:42.082Z,49.25
2018-05-08T05:30:42.077Z,49.36
2018-05-08T05:31:42.692Z,49.43
2018-05-08T05:32:42.033Z,49.47
2018-05-08T05:33:42.014Z,49.54
2018-05-08T05:34:41.942Z,49.53
2018-05-08T05:35:41.895Z,49.55
2018-05-08T05:36:42.174Z,49.7
2018-05-08T05:37:41.963Z,49.72
2018-05-08T05:38:41.928Z,49.67
2018-05-08T05:39:42.079Z,49.77
2018-05-08T05:40:41.902Z,49.79
2018-05-08T05:41:41.924Z,49.8
2018-05-08T05:42:42.834Z,49.88
2018-05-08T05:43:41.864Z,49.93
2018-05-08T05:44:42.036Z,49.88
2018-05-08T05:45:42.013Z,49.95
2018-05-08T05:46:41.860Z,50.02
2018-05-08T05:47:41.860Z,49.98
2018-05-08T05:48:41.866Z,50.04
2018-05-08T05:49:42.039Z,50.09
2018-05-08T05:50:41.842Z,50.06
2018-05-08T05:51:42.103Z,50.11
2018-05-08T05:52:42.078Z,50.15
2018-05-08T05:53:41.950Z,50.12
2018-05-08T05:54:41.982Z,50.2
2018-05-08T05:55:42.052Z,50.16
2018-05-08T05:56:41.910Z,50.18
2018-05-08T05:57:41.851Z,50.24
2018-05-08T05:58:42.083Z,50.24
2018-05-08T05:59:41.972Z,50.29
2018-05-08T06:00:41.834Z,50.26
2018-05-08T06:01:41.989Z,50.3
2018-05-08T06:02:41.943Z,50.28
2018-05-08T06:03:42.045Z,50.33
2018-05-08T06:04:41.974Z,50.37
2018-05-08T06:05:42.118Z,50.33
2018-05-08T06:06:41.963Z,50.39
2018-05-08T06:07:41.927Z,50.36
2018-05-08T06:08:41.835Z,50.39
2018-05-08T06:09:42.091Z,50.41
2018-05-08T06:10:42.109Z,50.41
2018-05-08T06:11:41.972Z,50.43
2018-05-08T06:12:41.963Z,50.48
2018-05-08T06:13:42.049Z,50.47
2018-05-08T06:14:41.865Z,50.45
2018-05-08T06:15:41.882Z,50.47
2018-05-08T06:16:41.950Z,50.51
2018-05-08T06:17:41.982Z,50.52
2018-05-08T06:18:41.950Z,50.53
2018-05-08T06:19:41.869Z,50.52
2018-05-08T06:20:41.952Z,50.52
2018-05-08T06:21:42.004Z,50.55
2018-05-08T06:22:41.767Z,50.54
2018-05-08T06:23:42.023Z,50.58
2018-05-08T06:24:41.947Z,50.56
2018-05-08T06:25:41.954Z,50.57
2018-05-08T06:26:41.916Z,50.45
2018-05-08T06:27:42.034Z,50.45
2018-05-08T06:28:41.966Z,50.37
2018-05-08T06:29:41.935Z,50.54
2018-05-08T06:30:41.867Z,50.73
2018-05-08T06:31:42.138Z,51.1
2018-05-08T06:32:41.828Z,50.98
2018-05-08T06:33:42.066Z,50.86
2018-05-08T06:34:42.074Z,50.9
2018-05-08T06:35:42.105Z,50.87
2018-05-08T06:36:41.895Z,50.87
2018-05-08T06:37:42.047Z,50.94
2018-05-08T06:38:42.028Z,50.87
2018-05-08T06:39:41.992Z,50.86
2018-05-08T06:40:41.980Z,50.91
2018-05-08T06:41:41.850Z,50.87
2018-05-08T06:42:42.045Z,50.89
2018-05-08T06:43:41.956Z,50.98
2018-05-08T06:44:42.046Z,51.07
2018-05-08T06:45:41.866Z,51.08
2018-05-08T06:46:42.448Z,51.08
2018-05-08T06:47:41.973Z,51.21
2018-05-08T06:48:42.001Z,51.17
2018-05-08T06:49:41.938Z,51.11
2018-05-08T06:50:41.825Z,51.16
2018-05-08T06:51:41.966Z,51.13
2018-05-08T06:52:42.005Z,51.18
2018-05-08T06:53:42.082Z,51.21
2018-05-08T06:54:42.092Z,51.13
2018-05-08T06:55:41.928Z,51.14
2018-05-08T06:56:41.858Z,51.15
2018-05-08T06:57:41.941Z,51.08
2018-05-08T06:58:42.020Z,51.08
2018-05-08T06:59:41.818Z,51.15
2018-05-08T07:00:41.978Z,51.12
2018-05-08T07:01:41.937Z,51.07
2018-05-08T07:02:42.051Z,51.16
2018-05-08T07:03:41.997Z,51.13
2018-05-08T07:04:42.032Z,51.14
2018-05-08T07:05:41.904Z,51.2
2018-05-08T07:06:42.004Z,51.15
2018-05-08T07:07:42.042Z,51.12
2018-05-08T07:08:41.877Z,51.15
2018-05-08T07:09:41.930Z,51.1
2018-05-08T07:11:13.775Z,51.13
2018-05-08T07:11:42.160Z,51.2
2018-05-08T07:12:42.035Z,51.14
2018-05-08T07:13:42.014Z,51.12
2018-05-08T07:14:42.016Z,51.16
2018-05-08T07:15:42.806Z,51.15
2018-05-08T07:16:41.959Z,51.13
2018-05-08T07:17:41.979Z,51.14
2018-05-08T07:18:41.996Z,51.16
2018-05-08T07:19:41.902Z,51.14
2018-05-08T07:20:51.924Z,51.16
2018-05-08T07:21:42.029Z,51.18
2018-05-08T07:22:41.971Z,51.16
2018-05-08T07:23:41.914Z,51.2
2018-05-08T07:24:41.889Z,51.21
2018-05-08T07:25:41.987Z,51.19
2018-05-08T07:26:42.226Z,51.19
2018-05-08T07:27:41.976Z,51.21
2018-05-08T07:28:41.946Z,51.18
2018-05-08T07:29:41.943Z,51.15
2018-05-08T07:30:42.308Z,51.22
2018-05-08T07:31:41.903Z,51.17
2018-05-08T07:32:41.863Z,51.2
2018-05-08T07:33:42.076Z,51.21
2018-05-08T07:34:42.010Z,51.2
2018-05-08T07:35:41.986Z,51.22
2018-05-08T07:36:41.810Z,51.24
2018-05-08T07:37:41.933Z,51.22
2018-05-08T07:38:41.771Z,51.22
2018-05-08T07:39:41.892Z,51.21
2018-05-08T07:40:42.039Z,51.24
2018-05-08T07:41:41.969Z,51.24
2018-05-08T07:42:41.964Z,51.21
2018-05-08T07:43:41.990Z,51.23
2018-05-08T07:44:41.976Z,51.25
2018-05-08T07:45:42.052Z,51.24
2018-05-08T07:46:41.896Z,51.23
2018-05-08T07:47:41.957Z,51.25
2018-05-08T07:48:42.059Z,51.24
2018-05-08T07:49:41.994Z,51.25
2018-05-08T07:50:42.796Z,51.3
2018-05-08T07:51:42.334Z,51.29
2018-05-08T07:52:41.882Z,51.29
2018-05-08T07:53:41.922Z,51.28
2018-05-08T07:54:42.040Z,51.24
2018-05-08T07:55:42.067Z,51.26
2018-05-08T07:56:42.143Z,51.29
2018-05-08T07:57:42.839Z,51.31
2018-05-08T07:58:41.937Z,51.23
2018-05-08T07:59:41.825Z,51.27
2018-05-08T08:00:42.133Z,51.32
2018-05-08T08:01:42.072Z,51.33
2018-05-08T08:02:42.034Z,51.34
2018-05-08T08:03:41.968Z,51.32
2018-05-08T08:04:41.915Z,51.31
2018-05-08T08:05:41.890Z,51.33
2018-05-08T08:06:41.915Z,51.34
2018-05-08T08:07:42.017Z,51.27
2018-05-08T08:08:41.877Z,51.31
2018-05-08T08:09:42.036Z,51.33
2018-05-08T08:10:42.071Z,51.31
2018-05-08T08:11:41.921Z,51.31
2018-05-08T08:12:41.979Z,51.35
2018-05-08T08:13:41.845Z,51.32
2018-05-08T08:14:41.820Z,51.34
2018-05-08T08:15:42.074Z,51.35
2018-05-08T08:16:42.111Z,51.31
2018-05-08T08:17:41.968Z,51.34
2018-05-08T08:18:41.892Z,51.35
2018-05-08T08:19:41.848Z,51.31
2018-05-08T08:20:41.909Z,51.39
2018-05-08T08:21:41.871Z,51.38
2018-05-08T08:22:42.020Z,51.38
2018-05-08T08:23:42.017Z,51.31
2018-05-08T08:24:42.028Z,51.35
2018-05-08T08:25:41.897Z,51.34
2018-05-08T08:26:42.077Z,51.34
2018-05-08T08:27:42.009Z,51.33
2018-05-08T08:28:42.010Z,51.33
2018-05-08T08:29:42.439Z,51.32
2018-05-08T08:30:41.826Z,51.31
2018-05-08T08:31:42.184Z,51.29
2018-05-08T08:32:41.935Z,51.35
2018-05-08T08:33:42.177Z,51.31
2018-05-08T08:34:41.966Z,51.36
2018-05-08T08:35:41.917Z,51.38
2018-05-08T08:36:41.918Z,51.34
2018-05-08T08:37:42.078Z,51.31
2018-05-08T08:38:41.940Z,51.4
2018-05-08T08:39:41.947Z,51.35
2018-05-08T08:40:41.811Z,51.35
2018-05-08T08:41:41.853Z,51.35
2018-05-08T08:42:41.829Z,51.34
2018-05-08T08:43:42.031Z,51.35
2018-05-08T08:44:42.045Z,51.39
2018-05-08T08:45:42.062Z,51.36
2018-05-08T08:46:41.877Z,51.33
2018-05-08T08:47:43.176Z,51.37
2018-05-08T08:48:41.997Z,51.36
2018-05-08T08:49:41.880Z,51.39
2018-05-08T08:50:42.222Z,51.38
2018-05-08T08:51:41.848Z,51.4
2018-05-08T08:52:41.821Z,51.41
2018-05-08T08:53:41.893Z,51.39
2018-05-08T08:54:42.100Z,51.39
2018-05-08T08:55:41.898Z,51.36
2018-05-08T08:56:41.913Z,51.44
2018-05-08T08:57:41.801Z,51.39
2018-05-08T08:58:41.962Z,51.41
2018-05-08T08:59:41.997Z,51.42
2018-05-08T09:00:41.883Z,51.4
2018-05-08T09:01:42.268Z,51.36
2018-05-08T09:02:41.867Z,51.4
2018-05-08T09:03:41.951Z,51.38
2018-05-08T09:04:41.870Z,51.44
2018-05-08T09:05:42.029Z,51.4
2018-05-08T09:06:41.875Z,51.4
2018-05-08T09:07:41.891Z,51.38
2018-05-08T09:08:41.906Z,51.42
2018-05-08T09:09:41.936Z,51.4
2018-05-08T09:10:42.126Z,51.38
2018-05-08T09:11:42.030Z,51.4
2018-05-08T09:12:42.060Z,51.4
2018-05-08T09:13:42.048Z,51.39
2018-05-08T09:14:41.862Z,51.42
2018-05-08T09:15:41.948Z,51.39
2018-05-08T09:16:42.067Z,51.38
2018-05-08T09:17:41.965Z,51.44
2018-05-08T09:18:41.830Z,51.41
2018-05-08T09:19:42.514Z,51.35
2018-05-08T09:20:41.894Z,51.47
2018-05-08T09:21:41.869Z,51.43
2018-05-08T09:22:41.830Z,51.46
2018-05-08T09:23:41.981Z,51.4
2018-05-08T09:24:41.898Z,51.44
2018-05-08T09:25:41.862Z,51.42
2018-05-08T09:26:41.901Z,51.46
2018-05-08T09:27:42.456Z,51.44
2018-05-08T09:28:41.852Z,51.39
2018-05-08T09:29:41.941Z,51.42
2018-05-08T09:30:41.891Z,51.42
2018-05-08T09:31:41.780Z,51.44
2018-05-08T09:32:42.197Z,51.45
2018-05-08T09:33:41.937Z,51.42
2018-05-08T09:34:41.980Z,51.44
2018-05-08T09:35:42.044Z,51.45
2018-05-08T09:36:41.806Z,51.41
2018-05-08T09:37:41.979Z,51.46
2018-05-08T09:38:42.061Z,51.47
2018-05-08T09:39:41.837Z,51.45
2018-05-08T09:40:42.048Z,51.46
2018-05-08T09:41:41.857Z,51.46
2018-05-08T09:42:42.067Z,51.43
2018-05-08T09:43:41.852Z,51.45
2018-05-08T09:44:41.921Z,51.46
2018-05-08T09:45:41.987Z,51.46
2018-05-08T09:46:41.964Z,51.46
2018-05-08T09:47:41.856Z,51.48
2018-05-08T09:48:42.249Z,51.47
2018-05-08T09:49:41.912Z,51.42
2018-05-08T09:50:41.854Z,51.44
2018-05-08T09:51:42.753Z,51.47
2018-05-08T09:52:42.630Z,51.48
2018-05-08T09:53:42.478Z,51.47
2018-05-08T09:54:42.456Z,51.48
2018-05-08T09:55:42.515Z,51.45
2018-05-08T09:56:42.579Z,51.53
2018-05-08T09:57:42.615Z,51.49
2018-05-08T09:58:42.484Z,51.45
2018-05-08T09:59:42.616Z,51.46
2018-05-08T10:00:42.694Z,51.46
2018-05-08T10:01:42.737Z,51.48
2018-05-08T10:02:42.661Z,51.54
2018-05-08T10:03:42.725Z,51.51
2018-05-08T10:04:42.500Z,51.49
2018-05-08T10:05:42.604Z,51.54
2018-05-08T10:06:44.054Z,51.57
2018-05-08T10:07:42.569Z,51.52
2018-05-08T10:08:42.631Z,51.54
2018-05-08T10:09:42.396Z,51.54
2018-05-08T10:10:42.552Z,51.53
2018-05-08T10:11:42.681Z,51.57
2018-05-08T10:12:42.556Z,51.53
2018-05-08T10:13:42.532Z,51.47
2018-05-08T10:14:42.741Z,51.5
2018-05-08T10:15:42.637Z,51.51
2018-05-08T10:16:42.455Z,51.48
2018-05-08T10:17:42.609Z,51.53
2018-05-08T10:18:42.404Z,51.54
2018-05-08T10:19:42.520Z,51.49
2018-05-08T10:20:43.189Z,51.56
2018-05-08T10:21:42.659Z,51.59
2018-05-08T10:22:42.621Z,51.55
2018-05-08T10:23:42.604Z,51.54
2018-05-08T10:24:42.715Z,51.49
2018-05-08T10:25:42.736Z,51.46
2018-05-08T10:26:42.976Z,51.61
2018-05-08T10:27:42.793Z,51.53
2018-05-08T10:28:42.811Z,51.51
2018-05-08T10:29:42.899Z,51.59
2018-05-08T10:30:42.598Z,51.61
2018-05-08T10:31:42.779Z,51.64
2018-05-08T10:32:42.584Z,51.61
2018-05-08T10:33:42.626Z,51.6
2018-05-08T10:34:42.639Z,51.66
2018-05-08T10:35:42.429Z,51.69
2018-05-08T10:36:42.725Z,51.67
2018-05-08T10:37:42.683Z,51.7
2018-05-08T10:38:42.383Z,51.75
2018-05-08T10:39:42.709Z,51.73
2018-05-08T10:40:42.730Z,51.71
2018-05-08T10:41:42.430Z,51.69
2018-05-08T10:42:43.146Z,51.64
2018-05-08T10:43:42.546Z,51.74
2018-05-08T10:44:42.656Z,51.67
2018-05-08T10:45:42.686Z,51.73
2018-05-08T10:46:42.623Z,51.71
2018-05-08T10:47:42.455Z,51.76
2018-05-08T10:48:42.564Z,51.74
2018-05-08T10:49:42.745Z,51.78
2018-05-08T10:50:41.837Z,51.73
2018-05-08T10:51:42.745Z,51.74
2018-05-08T10:52:42.796Z,51.74
2018-05-08T10:53:41.758Z,51.81
2018-05-08T10:54:42.719Z,51.77
2018-05-08T10:55:43.375Z,51.8
2018-05-08T10:56:42.852Z,51.82
2018-05-08T10:57:41.807Z,51.8
2018-05-08T10:58:42.083Z,51.79
2018-05-08T10:59:42.764Z,51.78
2018-05-08T11:00:41.781Z,51.73
2018-05-08T11:01:42.940Z,51.81
2018-05-08T11:02:41.764Z,51.8
2018-05-08T11:03:42.744Z,51.79
2018-05-08T11:04:42.585Z,51.73
2018-05-08T11:05:41.811Z,51.75
2018-05-08T11:06:41.811Z,51.72
2018-05-08T11:07:41.874Z,51.8
2018-05-08T11:08:42.730Z,51.76
2018-05-08T11:09:41.821Z,51.78
2018-05-08T11:10:42.398Z,51.82
2018-05-08T11:11:41.784Z,51.79
2018-05-08T11:12:42.703Z,51.74
2018-05-08T11:13:42.304Z,51.79
2018-05-08T11:14:42.900Z,51.79
2018-05-08T11:15:42.449Z,51.78
2018-05-08T11:16:41.819Z,51.77
2018-05-08T11:17:42.826Z,51.78
2018-05-08T11:18:42.881Z,51.81
2018-05-08T11:19:43.627Z,51.83
2018-05-08T11:20:41.877Z,51.8
2018-05-08T11:21:42.504Z,51.78
2018-05-08T11:22:41.841Z,51.76
2018-05-08T11:23:41.843Z,51.79
2018-05-08T11:24:42.979Z,51.82
2018-05-08T11:25:41.870Z,51.77
2018-05-08T11:26:43.744Z,51.77
2018-05-08T11:27:41.899Z,51.75
2018-05-08T11:28:42.367Z,51.8
2018-05-08T11:29:42.340Z,51.77
2018-05-08T11:30:42.083Z,51.79
2018-05-08T11:31:42.373Z,51.75
2018-05-08T11:32:41.997Z,51.72
2018-05-08T11:33:42.350Z,51.8
2018-05-08T11:34:42.188Z,51.77
2018-05-08T11:35:42.553Z,51.78
2018-05-08T11:36:41.803Z,51.78
2018-05-08T11:37:41.790Z,51.79
2018-05-08T11:38:42.856Z,51.73
2018-05-08T11:39:41.842Z,51.74
2018-05-08T11:40:41.893Z,51.75
2018-05-08T11:41:41.854Z,51.77
2018-05-08T11:42:42.687Z,51.75
2018-05-08T11:43:42.530Z,51.73
2018-05-08T11:44:42.276Z,51.82
2018-05-08T11:45:41.873Z,51.78
2018-05-08T11:46:41.756Z,51.77
2018-05-08T11:47:41.904Z,51.76
2018-05-08T11:48:42.481Z,51.74
2018-05-08T11:49:41.835Z,51.74
2018-05-08T11:50:42.401Z,51.76
2018-05-08T11:51:42.020Z,51.78
2018-05-08T11:52:42.142Z,51.78
2018-05-08T11:53:41.996Z,51.77
2018-05-08T11:54:42.119Z,51.79
2018-05-08T11:55:42.117Z,51.8
2018-05-08T11:56:42.003Z,51.73
2018-05-08T11:57:42.051Z,51.79
2018-05-08T11:58:41.997Z,51.77
2018-05-08T11:59:42.128Z,51.76
2018-05-08T12:00:42.099Z,51.78
2018-05-08T12:01:42.135Z,51.71
2018-05-08T12:02:43.144Z,51.73
2018-05-08T12:03:42.136Z,51.71
2018-05-08T12:04:44.620Z,51.77
2018-05-08T12:05:42.000Z,51.68
2018-05-08T12:06:42.379Z,51.74
2018-05-08T12:07:44.390Z,51.76
2018-05-08T12:08:42.015Z,51.74
2018-05-08T12:09:42.128Z,51.77
2018-05-08T12:10:42.018Z,51.78
2018-05-08T12:11:42.014Z,51.76
2018-05-08T12:12:44.442Z,51.79
2018-05-08T12:13:42.011Z,51.78
2018-05-08T12:14:42.278Z,51.71
2018-05-08T12:15:42.126Z,51.78
2018-05-08T12:16:45.504Z,51.76
2018-05-08T12:17:42.115Z,51.78
2018-05-08T12:18:42.393Z,51.79
2018-05-08T12:19:42.016Z,51.78
2018-05-08T12:20:42.046Z,51.76
2018-05-08T12:21:42.737Z,51.73
2018-05-08T12:22:44.755Z,51.78
2018-05-08T12:23:42.055Z,51.77
2018-05-08T12:24:42.107Z,51.76
2018-05-08T12:25:42.163Z,51.74
2018-05-08T12:26:42.088Z,51.74
2018-05-08T12:27:42.114Z,51.75
2018-05-08T12:28:42.357Z,51.71
2018-05-08T12:29:42.032Z,51.72
2018-05-08T12:30:44.586Z,51.76
2018-05-08T12:31:42.135Z,51.74
2018-05-08T12:32:42.631Z,51.78
2018-05-08T12:33:42.191Z,51.73
2018-05-08T12:34:42.121Z,51.75
2018-05-08T12:35:42.613Z,51.75
2018-05-08T12:36:42.150Z,51.79
2018-05-08T12:37:42.010Z,51.78
2018-05-08T12:38:44.196Z,51.73
2018-05-08T12:39:42.106Z,51.74
2018-05-08T12:40:42.017Z,51.76
2018-05-08T12:41:42.145Z,51.73
2018-05-08T12:42:42.182Z,51.7
2018-05-08T12:43:42.207Z,51.73
2018-05-08T12:44:42.026Z,51.79
2018-05-08T12:45:42.039Z,51.74
2018-05-08T12:46:42.778Z,51.75
2018-05-08T12:47:42.150Z,51.7
2018-05-08T12:48:42.435Z,51.73
2018-05-08T12:49:42.370Z,51.71
2018-05-08T12:50:41.736Z,51.67
2018-05-08T12:51:42.952Z,51.7
2018-05-08T12:52:42.603Z,51.73
2018-05-08T12:53:42.555Z,51.68
2018-05-08T12:54:42.158Z,51.7
2018-05-08T12:55:42.565Z,51.73